SBBE/BEL METAR and TAF weather

Enter ICAO airport designator
Station Type Date Time Source
SBBE METAR 2022/08/12 14:00 UTC NOAA

SBBE 121400Z 05008KT 9999 FEW025 31/23 Q1015


Station Type Date Time Source
SBBE Decoded METAR 2022/08/12 14:00 UTC NOAA

Belem Aeroporto , Brazil (SBBE) 01-23S 048-29W 16M
Aug 12, 2022 - 10:00 AM EDT / 2022.08.12 1400 UTC
Wind: from the NE (050 degrees) at 9 MPH (8 KT):0
Visibility: greater than 7 mile(s):0
Sky conditions: mostly clear
Temperature: 87 F (31 C)
Heat index: 93.9 F (34.4 C):1
Dew Point: 73 F (23 C)
Relative Humidity: 62%
Pressure (altimeter): 29.97 in. Hg (1015 hPa)
ob: SBBE 121400Z 05008KT 9999 FEW025 31/23 Q1015
cycle: 14

Station Type Date Time Source
SBBE TAF 2022/08/12 12:59 UTC NOAA

TAF SBBE 120800Z 1212/1312 08007KT 9999 FEW040 TX32/1217Z TN24/1309Z
BECMG 1217/1219 01012KT 8000 SCT030 FEW040TCU
BECMG 1221/1223 04007KT 9999 FEW030
BECMG 1302/1304 07005KT FEW020
BECMG 1309/1311 05005KT SCT023
RMK PGB

Example: see airport list